Time;durP1;ratioP1;P1;durP2;ratioP2;P2;SDS_P1;SDS_P2;PMS_P1;PMS_P2;Temp;Humidity;BMP_temperature;BMP_pressure;BME280_temperature;BME280_humidity;BME280_pressure;Samples;Min_cycle;Max_cycle;Signal;HPM_P1;HPM_P2
2022/02/14 00:00:11;;;;;;;7.40;5.27;;;5.40;99.90;;;;;;4983559;28;20477;-69
2022/02/14 00:02:41;;;;;;;9.60;5.73;;;5.40;99.90;;;;;;4978787;28;20226;-68
2022/02/14 00:05:07;;;;;;;10.10;5.70;;;5.40;99.90;;;;;;4965878;28;20470;-68
2022/02/14 00:07:33;;;;;;;5.70;4.93;;;5.30;99.90;;;;;;4982298;28;20446;-68
2022/02/14 00:09:59;;;;;;;6.53;5.27;;;5.20;99.90;;;;;;4983793;28;20456;-69
2022/02/14 00:12:25;;;;;;;6.00;4.60;;;5.20;99.90;;;;;;4986597;28;20731;-68
2022/02/14 00:14:50;;;;;;;4.63;4.17;;;5.20;99.90;;;;;;4985600;28;20230;-69
2022/02/14 00:17:16;;;;;;;6.10;5.00;;;5.20;99.90;;;;;;4963433;28;20462;-69
2022/02/14 00:19:49;;;;;;;5.93;4.33;;;5.20;99.90;;;;;;4972785;28;20237;-69
2022/02/14 00:22:21;;;;;;;6.30;4.70;;;5.20;99.90;;;;;;4987210;28;20466;-69
2022/02/14 00:24:51;;;;;;;9.37;5.27;;;5.20;99.90;;;;;;4978148;28;20999;-68
2022/02/14 00:27:18;;;;;;;10.93;5.47;;;5.20;99.90;;;;;;4990291;28;20511;-69
2022/02/14 00:29:45;;;;;;;9.50;5.00;;;5.20;99.90;;;;;;4997662;28;20529;-69
2022/02/14 00:32:11;;;;;;;4.83;3.50;;;5.20;99.90;;;;;;4992497;28;20453;-68
2022/02/14 00:34:37;;;;;;;10.23;4.70;;;5.20;99.90;;;;;;4970782;28;20484;-68
2022/02/14 00:37:04;;;;;;;5.93;4.37;;;5.20;99.90;;;;;;4971737;28;20524;-69
2022/02/14 00:39:30;;;;;;;5.90;3.83;;;5.20;99.90;;;;;;4989678;28;20663;-69
2022/02/14 00:41:55;;;;;;;5.73;4.10;;;5.10;99.90;;;;;;4980651;28;20452;-68
2022/02/14 00:44:21;;;;;;;6.17;4.20;;;5.10;99.90;;;;;;4992333;28;20468;-68
2022/02/14 00:46:47;;;;;;;5.17;4.10;;;5.10;99.90;;;;;;4990503;28;20210;-69
2022/02/14 00:49:13;;;;;;;6.23;4.23;;;5.10;99.90;;;;;;4999187;28;20471;-69
2022/02/14 00:51:39;;;;;;;6.20;5.20;;;5.10;99.90;;;;;;4990910;28;20225;-68
2022/02/14 00:54:04;;;;;;;8.40;3.80;;;5.00;99.90;;;;;;4999833;28;20224;-69
2022/02/14 00:56:30;;;;;;;5.23;4.00;;;5.00;99.90;;;;;;4990725;28;20222;-68
2022/02/14 00:58:56;;;;;;;5.30;3.87;;;5.00;99.90;;;;;;4990422;28;20747;-69
2022/02/14 01:01:21;;;;;;;5.87;4.17;;;5.00;99.90;;;;;;4990866;28;20218;-68
2022/02/14 01:03:48;;;;;;;4.93;3.83;;;5.00;99.90;;;;;;4998631;28;20233;-69
2022/02/14 01:06:13;;;;;;;6.13;4.00;;;5.00;99.90;;;;;;5002027;28;20218;-68
2022/02/14 01:08:39;;;;;;;7.83;3.60;;;5.00;99.90;;;;;;4998558;28;20786;-68
2022/02/14 01:11:05;;;;;;;5.70;3.93;;;5.00;99.90;;;;;;4990173;28;20264;-68
2022/02/14 01:13:31;;;;;;;9.73;3.53;;;5.00;99.90;;;;;;4989784;28;20951;-68
2022/02/14 01:15:57;;;;;;;4.57;3.97;;;4.90;99.90;;;;;;5002375;28;20691;-69
2022/02/14 01:18:23;;;;;;;5.43;4.47;;;4.90;99.90;;;;;;4995874;28;20460;-69
2022/02/14 01:20:49;;;;;;;4.90;3.40;;;4.90;99.90;;;;;;4991299;28;20312;-68
2022/02/14 01:23:16;;;;;;;6.23;3.90;;;4.80;99.90;;;;;;4990342;28;20221;-68
2022/02/14 01:25:41;;;;;;;5.70;3.57;;;4.90;99.90;;;;;;5004571;28;20583;-68
2022/02/14 01:28:07;;;;;;;4.83;3.63;;;4.80;99.90;;;;;;5009921;28;20539;-68
2022/02/14 01:30:33;;;;;;;8.23;3.33;;;4.90;99.90;;;;;;4999333;28;20221;-69
2022/02/14 01:33:00;;;;;;;5.43;3.60;;;4.80;99.90;;;;;;4992397;28;20213;-69
2022/02/14 01:35:26;;;;;;;6.27;3.90;;;4.80;99.90;;;;;;4990710;28;20311;-68
2022/02/14 01:37:52;;;;;;;7.73;4.23;;;4.80;99.90;;;;;;4973560;28;20516;-68
2022/02/14 01:40:18;;;;;;;6.00;3.60;;;4.80;99.90;;;;;;4997652;28;20503;-69
2022/02/14 01:42:43;;;;;;;5.30;3.77;;;4.80;99.90;;;;;;4996386;28;20225;-69
2022/02/14 01:45:10;;;;;;;4.37;3.97;;;4.80;99.90;;;;;;4991307;28;20264;-69
2022/02/14 01:47:36;;;;;;;5.03;3.50;;;4.80;99.90;;;;;;4980416;28;20245;-68
2022/02/14 01:50:03;;;;;;;8.47;4.63;;;4.80;99.90;;;;;;4989736;28;20472;-69
2022/02/14 01:52:30;;;;;;;8.17;5.07;;;4.80;99.90;;;;;;4988408;28;20449;-68
2022/02/14 01:54:58;;;;;;;6.13;4.13;;;4.80;99.90;;;;;;4970824;28;20473;-68
2022/02/14 01:57:24;;;;;;;4.87;4.00;;;4.80;99.90;;;;;;5018982;28;20862;-68
2022/02/14 01:59:50;;;;;;;4.83;3.70;;;4.80;99.90;;;;;;4991660;28;20481;-68
2022/02/14 02:02:16;;;;;;;5.70;4.80;;;4.70;99.90;;;;;;4989394;28;20229;-69
2022/02/14 02:04:44;;;;;;;10.20;5.00;;;4.70;99.90;;;;;;4988931;28;20240;-68
2022/02/14 02:07:10;;;;;;;14.53;5.40;;;4.70;99.90;;;;;;4997525;28;20483;-69
2022/02/14 02:09:36;;;;;;;8.10;4.90;;;4.70;99.90;;;;;;4990281;28;20465;-68
2022/02/14 02:14:47;;;;;;;10.43;4.93;;;4.70;99.90;;;;;;4988534;28;20547;-69
2022/02/14 02:17:13;;;;;;;6.37;4.33;;;4.60;99.90;;;;;;4980026;28;20645;-69
2022/02/14 02:19:38;;;;;;;7.10;4.30;;;4.60;99.90;;;;;;4996707;28;20229;-68
2022/02/14 02:22:04;;;;;;;7.60;4.90;;;4.60;99.90;;;;;;5005436;28;20222;-69
2022/02/14 02:24:34;;;;;;;6.50;4.67;;;4.60;99.90;;;;;;4972139;28;20221;-68
2022/02/14 02:27:02;;;;;;;5.53;3.87;;;4.60;99.90;;;;;;4989091;28;20695;-68
2022/02/14 02:29:29;;;;;;;7.63;4.40;;;4.60;99.90;;;;;;4975809;28;20449;-68
2022/02/14 02:31:56;;;;;;;4.43;4.00;;;4.60;99.90;;;;;;5014107;28;20460;-68
2022/02/14 02:34:22;;;;;;;8.00;4.63;;;4.60;99.90;;;;;;5000699;28;20453;-68
2022/02/14 02:36:50;;;;;;;5.50;4.07;;;4.60;99.90;;;;;;4998022;28;20472;-68
2022/02/14 02:39:17;;;;;;;5.93;4.20;;;4.60;99.90;;;;;;4992716;28;20468;-69
2022/02/14 02:41:42;;;;;;;8.00;4.43;;;4.60;99.90;;;;;;4998247;28;20965;-68
2022/02/14 02:44:09;;;;;;;5.00;3.40;;;4.60;99.90;;;;;;4996266;28;20460;-69
2022/02/14 02:46:34;;;;;;;5.70;4.33;;;4.50;99.90;;;;;;4992899;28;20214;-68
2022/02/14 02:49:14;;;;;;;5.90;4.07;;;4.50;99.90;;;;;;4994297;28;20445;-69
2022/02/14 02:51:41;;;;;;;7.50;3.67;;;4.50;99.90;;;;;;4994758;28;20291;-69
2022/02/14 02:54:08;;;;;;;3.20;2.63;;;4.50;99.90;;;;;;4997894;28;20532;-68
2022/02/14 02:56:35;;;;;;;5.87;3.63;;;4.50;99.90;;;;;;4975986;28;20438;-68
2022/02/14 02:59:01;;;;;;;7.40;3.60;;;4.50;99.90;;;;;;4992502;28;20515;-68
2022/02/14 03:01:26;;;;;;;4.53;3.30;;;4.50;99.90;;;;;;5003922;28;20469;-68
2022/02/14 03:03:53;;;;;;;3.40;3.10;;;4.40;99.90;;;;;;4995570;28;20229;-68
2022/02/14 03:06:19;;;;;;;4.40;2.73;;;4.40;99.90;;;;;;4992561;28;20214;-67
2022/02/14 03:08:45;;;;;;;3.90;2.83;;;4.40;99.90;;;;;;4992211;28;20464;-69
2022/02/14 03:11:11;;;;;;;2.87;2.43;;;4.40;99.90;;;;;;5000297;28;20456;-68
2022/02/14 03:13:37;;;;;;;3.00;2.43;;;4.40;99.90;;;;;;4999772;28;20503;-68
2022/02/14 03:16:03;;;;;;;3.90;2.73;;;4.40;99.90;;;;;;4969321;28;20328;-69
2022/02/14 03:18:28;;;;;;;4.90;3.60;;;4.40;99.90;;;;;;4991474;28;20226;-68
2022/02/14 03:20:54;;;;;;;3.50;2.87;;;4.30;99.90;;;;;;5008732;28;20477;-68
2022/02/14 03:23:20;;;;;;;3.23;2.57;;;4.30;99.90;;;;;;5007482;28;20225;-68
2022/02/14 03:25:46;;;;;;;11.10;3.50;;;4.30;99.90;;;;;;4991643;28;20538;-68
2022/02/14 03:28:11;;;;;;;4.07;2.93;;;4.30;99.90;;;;;;4992684;28;20615;-69
2022/02/14 03:30:37;;;;;;;3.00;2.70;;;4.30;99.90;;;;;;5005637;28;20225;-68
2022/02/14 03:33:03;;;;;;;3.87;3.10;;;4.20;99.90;;;;;;4996174;28;20229;-70
2022/02/14 03:35:28;;;;;;;2.97;2.67;;;4.20;99.90;;;;;;4975403;28;20236;-68
2022/02/14 03:37:56;;;;;;;3.20;2.97;;;4.20;99.90;;;;;;4975650;28;20301;-68
2022/02/14 03:40:22;;;;;;;4.93;3.33;;;4.20;99.90;;;;;;5000388;28;20597;-68
2022/02/14 03:42:48;;;;;;;3.40;2.70;;;4.20;99.90;;;;;;5010325;28;21066;-68
2022/02/14 03:45:13;;;;;;;3.87;2.50;;;4.20;99.90;;;;;;5011086;28;20468;-69
2022/02/14 03:47:39;;;;;;;4.07;3.53;;;4.20;99.90;;;;;;4986803;28;20225;-68
2022/02/14 03:50:06;;;;;;;2.43;2.20;;;4.20;99.90;;;;;;5008267;28;20249;-68
2022/02/14 03:52:32;;;;;;;8.40;2.47;;;4.20;99.90;;;;;;4991326;28;20444;-68
2022/02/14 03:54:57;;;;;;;7.77;3.37;;;4.20;99.90;;;;;;4988742;28;20891;-69
2022/02/14 03:57:23;;;;;;;5.97;2.90;;;4.20;99.90;;;;;;4963402;28;20221;-68
2022/02/14 03:59:48;;;;;;;3.50;2.33;;;4.20;99.90;;;;;;4995768;28;20221;-68
2022/02/14 04:02:14;;;;;;;5.13;2.80;;;4.20;99.90;;;;;;5006370;28;20225;-69
2022/02/14 04:04:40;;;;;;;4.50;3.10;;;4.20;99.90;;;;;;4992502;28;20229;-69
2022/02/14 04:07:05;;;;;;;2.70;2.50;;;4.10;99.90;;;;;;4975700;28;20245;-68
2022/02/14 04:09:31;;;;;;;4.10;2.90;;;4.20;99.90;;;;;;4991061;28;21185;-70
2022/02/14 04:11:57;;;;;;;4.77;2.63;;;4.20;99.90;;;;;;4981936;28;20269;-68
2022/02/14 04:14:22;;;;;;;4.60;2.73;;;4.20;99.90;;;;;;4972914;28;20234;-68
2022/02/14 04:16:48;;;;;;;4.33;3.17;;;4.20;99.90;;;;;;4983481;28;20230;-68
2022/02/14 04:19:14;;;;;;;3.60;2.70;;;4.20;99.90;;;;;;5008870;28;20233;-68
2022/02/14 04:21:39;;;;;;;5.10;2.80;;;4.10;99.90;;;;;;5001304;28;20699;-68
2022/02/14 04:24:05;;;;;;;3.43;2.40;;;4.20;99.90;;;;;;4996756;28;20250;-68
2022/02/14 04:26:31;;;;;;;3.10;2.80;;;4.20;99.90;;;;;;4992204;28;20236;-68
2022/02/14 04:28:56;;;;;;;3.40;2.57;;;4.20;99.90;;;;;;4991049;28;20214;-68
2022/02/14 04:31:22;;;;;;;2.43;2.17;;;4.10;99.90;;;;;;4991556;28;20229;-68
2022/02/14 04:33:48;;;;;;;3.60;2.17;;;4.10;99.90;;;;;;4988139;28;20232;-67
2022/02/14 04:36:13;;;;;;;3.47;2.20;;;4.10;99.90;;;;;;4990572;28;20213;-69
2022/02/14 04:38:39;;;;;;;3.83;2.63;;;4.10;99.90;;;;;;4990733;28;20289;-69
2022/02/14 04:41:05;;;;;;;3.13;2.37;;;4.10;99.90;;;;;;4990159;28;20226;-69
2022/02/14 04:43:31;;;;;;;2.70;2.40;;;4.10;99.90;;;;;;4995654;28;20245;-69
2022/02/14 04:45:56;;;;;;;4.43;2.80;;;4.00;99.90;;;;;;4995753;28;20214;-69
2022/02/14 04:48:23;;;;;;;3.97;2.67;;;4.00;99.90;;;;;;4987153;28;20229;-69
2022/02/14 04:50:49;;;;;;;3.90;3.07;;;4.10;99.90;;;;;;4999905;28;20222;-70
2022/02/14 04:53:14;;;;;;;4.83;2.97;;;4.10;99.90;;;;;;4989572;28;20456;-70
2022/02/14 04:55:40;;;;;;;4.10;2.73;;;4.00;99.90;;;;;;5002838;28;20229;-69
2022/02/14 04:58:05;;;;;;;6.60;3.63;;;4.10;99.90;;;;;;5008422;28;20330;-69
2022/02/14 05:00:31;;;;;;;4.87;4.30;;;4.00;99.90;;;;;;4988788;28;20299;-69
2022/02/14 05:02:57;;;;;;;4.97;3.60;;;4.00;99.90;;;;;;4991382;28;20220;-69
2022/02/14 05:05:23;;;;;;;5.00;3.70;;;4.00;99.90;;;;;;4985417;28;20264;-69
2022/02/14 05:07:50;;;;;;;3.40;3.10;;;3.90;99.90;;;;;;4990330;28;20285;-68
2022/02/14 05:10:17;;;;;;;6.20;4.07;;;3.90;99.90;;;;;;4997961;28;20221;-68
2022/02/14 05:12:43;;;;;;;10.03;4.30;;;3.90;99.90;;;;;;5010599;28;20452;-69
2022/02/14 05:15:09;;;;;;;4.00;3.60;;;3.90;99.90;;;;;;5001527;28;20479;-68
2022/02/14 05:17:36;;;;;;;4.60;2.77;;;3.80;99.90;;;;;;4991816;28;20222;-68
2022/02/14 05:20:04;;;;;;;5.00;3.60;;;3.80;99.90;;;;;;4989680;28;20917;-69
2022/02/14 05:22:29;;;;;;;7.60;4.20;;;3.90;99.90;;;;;;4994984;28;20452;-68
2022/02/14 05:24:55;;;;;;;4.37;3.60;;;3.80;99.90;;;;;;4992225;28;20536;-69
2022/02/14 05:27:21;;;;;;;4.03;2.93;;;3.80;99.90;;;;;;4972973;28;20222;-68
2022/02/14 05:29:47;;;;;;;2.83;2.60;;;3.80;99.90;;;;;;4989892;28;20231;-68
2022/02/14 05:32:13;;;;;;;4.47;3.23;;;3.90;99.90;;;;;;4990670;28;20548;-68
2022/02/14 05:34:40;;;;;;;8.43;4.30;;;3.90;99.90;;;;;;5008859;28;20518;-68
2022/02/14 05:37:05;;;;;;;8.13;4.30;;;3.90;99.90;;;;;;5008491;28;20221;-68
2022/02/14 05:39:31;;;;;;;3.97;3.57;;;3.90;99.90;;;;;;4989804;28;20488;-68
2022/02/14 05:41:57;;;;;;;5.60;3.83;;;3.90;99.90;;;;;;4988723;28;20244;-68
2022/02/14 05:44:22;;;;;;;7.80;4.13;;;3.90;99.90;;;;;;4988061;28;20226;-68
2022/02/14 05:46:48;;;;;;;6.03;3.17;;;3.90;99.90;;;;;;4987935;28;20308;-68
2022/02/14 05:49:14;;;;;;;4.57;4.00;;;3.90;99.90;;;;;;4985323;28;20222;-69
2022/02/14 05:51:40;;;;;;;5.90;4.00;;;3.90;99.90;;;;;;4988257;28;20679;-68
2022/02/14 05:54:06;;;;;;;6.23;4.00;;;3.90;99.90;;;;;;4989818;28;20222;-69
2022/02/14 05:56:32;;;;;;;5.10;3.67;;;3.90;99.90;;;;;;4960341;28;20225;-68
2022/02/14 05:58:59;;;;;;;5.30;3.50;;;3.90;99.90;;;;;;4952961;28;20485;-69
2022/02/14 06:01:25;;;;;;;13.23;3.90;;;3.90;99.90;;;;;;4985344;28;20464;-68
2022/02/14 06:03:51;;;;;;;5.63;3.67;;;3.90;99.90;;;;;;5004442;28;20488;-68
2022/02/14 06:06:17;;;;;;;5.33;4.37;;;4.00;99.90;;;;;;4989417;28;20469;-68
2022/02/14 06:08:42;;;;;;;3.97;3.57;;;3.90;99.90;;;;;;4988422;28;20226;-68
2022/02/14 06:11:08;;;;;;;7.00;4.13;;;3.90;99.90;;;;;;4987416;28;20213;-69
2022/02/14 06:13:34;;;;;;;5.43;4.60;;;3.90;99.90;;;;;;5003577;28;20264;-68
2022/02/14 06:16:00;;;;;;;15.20;4.60;;;4.00;99.90;;;;;;4987498;28;20277;-68
2022/02/14 06:18:25;;;;;;;6.57;5.23;;;4.00;99.90;;;;;;4986230;28;20465;-68
2022/02/14 06:20:51;;;;;;;9.73;5.00;;;4.00;99.90;;;;;;5000260;28;20594;-68
2022/02/14 06:23:17;;;;;;;8.57;5.17;;;4.00;99.90;;;;;;4976564;28;20216;-69
2022/02/14 06:25:43;;;;;;;14.03;4.20;;;4.00;99.90;;;;;;4987850;28;20278;-68
2022/02/14 06:28:09;;;;;;;11.97;4.50;;;4.10;99.90;;;;;;4970055;28;20461;-68
2022/02/14 06:30:35;;;;;;;7.73;4.20;;;4.10;99.90;;;;;;4989258;28;20587;-68
2022/02/14 06:33:00;;;;;;;17.83;5.00;;;4.10;99.90;;;;;;4995377;28;20280;-68
2022/02/14 06:35:26;;;;;;;9.60;4.17;;;4.10;99.90;;;;;;4995678;28;20239;-68
2022/02/14 06:37:52;;;;;;;11.37;4.23;;;4.20;99.90;;;;;;4971526;28;20688;-68
2022/02/14 06:40:18;;;;;;;7.97;3.40;;;4.20;99.90;;;;;;4980361;28;20233;-68
2022/02/14 06:42:47;;;;;;;5.27;3.30;;;4.20;99.90;;;;;;4992656;28;20473;-68
2022/02/14 06:45:15;;;;;;;6.50;3.87;;;4.20;99.90;;;;;;4986333;28;20473;-69
2022/02/14 06:47:41;;;;;;;5.63;4.03;;;4.30;99.90;;;;;;4989001;28;20461;-69
2022/02/14 06:50:07;;;;;;;5.20;3.60;;;4.30;99.90;;;;;;4976956;28;20473;-68
2022/02/14 06:52:33;;;;;;;4.93;3.00;;;4.30;99.90;;;;;;4990799;28;20452;-68
2022/02/14 06:54:58;;;;;;;4.50;3.10;;;4.30;99.90;;;;;;4988752;28;20457;-68
2022/02/14 06:57:24;;;;;;;2.80;2.57;;;4.40;99.90;;;;;;4987035;28;20755;-68
2022/02/14 06:59:50;;;;;;;5.67;2.90;;;4.40;99.90;;;;;;4989631;28;20257;-68
2022/02/14 07:02:16;;;;;;;2.97;2.40;;;4.40;99.90;;;;;;4986474;28;20217;-69
2022/02/14 07:04:41;;;;;;;3.53;2.67;;;4.40;99.90;;;;;;4985231;28;20254;-69
2022/02/14 07:07:07;;;;;;;3.33;2.30;;;4.50;99.90;;;;;;4983947;28;20332;-70
2022/02/14 07:09:33;;;;;;;5.27;2.80;;;4.50;99.90;;;;;;4997872;28;20357;-69
2022/02/14 07:11:58;;;;;;;4.43;3.00;;;4.50;99.90;;;;;;5002102;28;20774;-69
2022/02/14 07:14:24;;;;;;;3.83;2.93;;;4.50;99.90;;;;;;4991270;28;20231;-69
2022/02/14 07:16:50;;;;;;;2.60;2.40;;;4.50;99.90;;;;;;5008062;28;20214;-69
2022/02/14 07:19:16;;;;;;;3.10;2.73;;;4.50;99.90;;;;;;5011316;28;20217;-69
2022/02/14 07:21:42;;;;;;;2.07;1.97;;;4.60;99.90;;;;;;5004058;28;20859;-69
2022/02/14 07:24:08;;;;;;;3.60;2.37;;;4.60;99.90;;;;;;5005188;28;20271;-70
2022/02/14 07:26:34;;;;;;;3.40;2.57;;;4.60;99.90;;;;;;4991791;28;20227;-69
2022/02/14 07:29:00;;;;;;;4.90;3.00;;;4.60;99.90;;;;;;4993324;28;20542;-69
2022/02/14 07:31:26;;;;;;;7.73;4.07;;;4.70;99.90;;;;;;4990018;28;20540;-69
2022/02/14 07:33:52;;;;;;;3.03;2.73;;;4.70;99.90;;;;;;4994544;28;20465;-69
2022/02/14 07:36:18;;;;;;;8.77;4.27;;;4.70;99.90;;;;;;5006899;28;20221;-70
2022/02/14 07:38:44;;;;;;;8.17;5.37;;;4.70;99.90;;;;;;4991943;28;20218;-69
2022/02/14 07:41:09;;;;;;;14.07;5.80;;;4.70;99.90;;;;;;4988216;28;21024;-69
2022/02/14 07:43:35;;;;;;;15.57;7.80;;;4.70;99.90;;;;;;5005676;28;20683;-68
2022/02/14 07:46:01;;;;;;;10.60;6.40;;;4.70;99.90;;;;;;4957490;28;20226;-69
2022/02/14 07:48:26;;;;;;;9.43;6.60;;;4.70;99.90;;;;;;4975963;28;20274;-69
2022/02/14 07:50:52;;;;;;;10.20;6.27;;;4.80;99.90;;;;;;4987802;28;20597;-69
2022/02/14 07:53:19;;;;;;;9.90;5.27;;;4.80;99.90;;;;;;4992947;28;20233;-68
2022/02/14 07:55:45;;;;;;;8.50;4.80;;;4.80;99.90;;;;;;4999468;28;20230;-68
2022/02/14 07:58:11;;;;;;;6.97;4.70;;;4.80;99.90;;;;;;5011439;28;20459;-69
2022/02/14 08:00:37;;;;;;;5.60;3.70;;;4.90;99.90;;;;;;5005487;28;20454;-67
2022/02/14 08:03:03;;;;;;;3.70;3.40;;;4.90;99.90;;;;;;4991081;28;20461;-70
2022/02/14 08:05:29;;;;;;;7.93;3.47;;;4.90;99.90;;;;;;4999144;28;20616;-67
2022/02/14 08:07:55;;;;;;;3.70;3.03;;;5.00;99.90;;;;;;4993053;28;20226;-69
2022/02/14 08:10:21;;;;;;;5.90;2.60;;;5.00;99.90;;;;;;4992349;28;20228;-69
2022/02/14 08:12:46;;;;;;;6.70;2.60;;;5.00;99.90;;;;;;4977946;28;20268;-70
2022/02/14 08:15:12;;;;;;;4.37;2.60;;;5.10;99.90;;;;;;4991250;28;20992;-69
2022/02/14 08:17:38;;;;;;;3.07;2.80;;;5.10;99.90;;;;;;4991300;28;20245;-68
2022/02/14 08:20:05;;;;;;;3.70;2.53;;;5.10;99.90;;;;;;4990737;28;20324;-69
2022/02/14 08:22:30;;;;;;;5.10;3.47;;;5.10;99.90;;;;;;4992241;28;20232;-69
2022/02/14 08:24:57;;;;;;;7.70;3.20;;;5.20;99.90;;;;;;4996262;28;20449;-69
2022/02/14 08:27:24;;;;;;;4.47;2.73;;;5.20;99.90;;;;;;4989583;28;20479;-69
2022/02/14 08:29:53;;;;;;;3.07;2.80;;;5.20;99.90;;;;;;4990905;28;20472;-68
2022/02/14 08:32:18;;;;;;;3.93;3.00;;;5.20;99.90;;;;;;4999602;28;20992;-69
2022/02/14 08:34:44;;;;;;;10.80;3.07;;;5.20;99.90;;;;;;4990843;28;20450;-69
2022/02/14 08:37:11;;;;;;;5.30;3.03;;;5.30;99.90;;;;;;4992477;28;20630;-69
2022/02/14 08:39:38;;;;;;;4.33;2.87;;;5.30;99.90;;;;;;4989869;28;20256;-68
2022/02/14 08:42:04;;;;;;;4.70;3.20;;;5.30;99.90;;;;;;4997777;28;20459;-69
2022/02/14 08:44:30;;;;;;;5.37;3.23;;;5.30;99.90;;;;;;5002828;28;20481;-68
2022/02/14 08:46:56;;;;;;;5.00;3.33;;;5.30;99.90;;;;;;4974878;28;20955;-69
2022/02/14 08:49:24;;;;;;;6.33;4.10;;;5.30;99.90;;;;;;4985762;28;20596;-69
2022/02/14 08:51:56;;;;;;;3.00;2.77;;;5.40;99.90;;;;;;4990734;28;20598;-69
2022/02/14 08:54:21;;;;;;;5.97;3.10;;;5.40;99.90;;;;;;4991470;28;20472;-70
2022/02/14 08:56:48;;;;;;;9.00;3.30;;;5.40;99.90;;;;;;4991937;28;20886;-69
2022/02/14 08:59:19;;;;;;;4.33;3.30;;;5.40;99.90;;;;;;4990466;28;20457;-69
2022/02/14 09:01:47;;;;;;;4.73;3.37;;;5.50;99.90;;;;;;4999162;28;20583;-69
2022/02/14 09:04:13;;;;;;;5.70;3.33;;;5.50;99.90;;;;;;4991926;28;20475;-70
2022/02/14 09:06:38;;;;;;;6.00;3.70;;;5.50;99.90;;;;;;4990206;28;20463;-69
2022/02/14 09:09:04;;;;;;;8.83;3.93;;;5.50;99.90;;;;;;4998887;28;20221;-69
2022/02/14 09:11:30;;;;;;;5.80;3.40;;;5.60;99.90;;;;;;5009330;28;20217;-69
2022/02/14 09:13:56;;;;;;;3.77;3.47;;;5.60;99.90;;;;;;4992376;28;20325;-68
2022/02/14 09:16:21;;;;;;;7.50;3.60;;;5.60;99.90;;;;;;4988546;28;20755;-69
2022/02/14 09:18:47;;;;;;;3.70;3.30;;;5.60;99.90;;;;;;4996866;28;20221;-69
2022/02/14 09:21:13;;;;;;;6.17;3.90;;;5.60;99.90;;;;;;5000779;28;20241;-70
2022/02/14 09:23:39;;;;;;;7.10;5.10;;;5.70;99.90;;;;;;4999085;28;20221;-70
2022/02/14 09:26:05;;;;;;;8.23;4.70;;;5.70;99.90;;;;;;4993276;28;20476;-69
2022/02/14 09:28:30;;;;;;;12.73;6.20;;;5.70;99.90;;;;;;4994128;28;20234;-70
2022/02/14 09:30:56;;;;;;;8.37;5.10;;;5.70;99.90;;;;;;4995842;28;20236;-69
2022/02/14 09:33:24;;;;;;;6.87;5.30;;;5.80;99.90;;;;;;4990006;28;20242;-70
2022/02/14 09:35:50;;;;;;;8.20;5.13;;;5.80;99.90;;;;;;4983733;28;20218;-70
2022/02/14 09:38:16;;;;;;;12.63;6.30;;;5.80;99.90;;;;;;4980652;28;20457;-68
2022/02/14 09:40:42;;;;;;;11.93;6.77;;;5.80;99.90;;;;;;4990576;28;20241;-69
2022/02/14 09:43:09;;;;;;;7.53;5.37;;;5.90;99.90;;;;;;4993668;28;20291;-70
2022/02/14 09:45:36;;;;;;;6.50;4.90;;;5.90;99.90;;;;;;4996966;28;20524;-69
2022/02/14 09:48:05;;;;;;;7.37;4.30;;;5.90;99.90;;;;;;4992969;28;20838;-70
2022/02/14 09:50:33;;;;;;;6.93;5.20;;;5.90;99.90;;;;;;4992110;28;20539;-69
2022/02/14 09:53:00;;;;;;;7.47;5.07;;;6.00;99.90;;;;;;5006216;28;20515;-70
2022/02/14 09:55:26;;;;;;;14.17;7.60;;;6.00;99.90;;;;;;4990533;28;20468;-70
2022/02/14 09:57:52;;;;;;;13.80;8.60;;;6.00;99.90;;;;;;5001256;28;20511;-70
2022/02/14 10:00:19;;;;;;;13.10;8.10;;;6.00;99.90;;;;;;5002672;28;20503;-68
2022/02/14 10:02:44;;;;;;;13.40;8.90;;;6.10;99.90;;;;;;4973611;28;20461;-69
2022/02/14 10:05:13;;;;;;;14.40;8.77;;;6.10;99.90;;;;;;4989014;28;20477;-70
2022/02/14 10:07:45;;;;;;;16.67;10.13;;;6.10;99.90;;;;;;4997357;28;20222;-69
2022/02/14 10:10:15;;;;;;;15.40;7.90;;;6.30;99.90;;;;;;4989489;28;20567;-69
2022/02/14 10:12:46;;;;;;;16.73;7.60;;;6.40;99.90;;;;;;4990435;28;20472;-68
2022/02/14 10:15:14;;;;;;;11.37;5.97;;;6.60;99.90;;;;;;4989327;28;20551;-70
2022/02/14 10:17:45;;;;;;;11.80;5.63;;;6.70;99.90;;;;;;4989219;28;20514;-69
2022/02/14 10:20:15;;;;;;;7.50;4.17;;;6.90;99.90;;;;;;4990691;28;20484;-70
2022/02/14 10:23:06;;;;;;;8.80;7.43;;;7.10;99.90;;;;;;4995628;28;20461;-68
2022/02/14 10:25:37;;;;;;;9.73;8.83;;;7.30;99.90;;;;;;5000129;28;20550;-68
2022/02/14 10:28:14;;;;;;;4.00;3.70;;;7.40;99.90;;;;;;4993062;28;20460;-70
2022/02/14 10:31:07;;;;;;;7.97;2.77;;;7.50;99.90;;;;;;4985638;28;20456;-69
2022/02/14 10:33:52;;;;;;;4.43;4.03;;;7.70;99.90;;;;;;4988687;28;20707;-69
2022/02/14 10:36:28;;;;;;;5.43;4.10;;;7.90;99.90;;;;;;4969182;28;20461;-69
2022/02/14 10:38:54;;;;;;;7.43;6.00;;;8.00;99.90;;;;;;4995656;28;20456;-70
2022/02/14 10:41:20;;;;;;;8.40;7.50;;;8.20;99.90;;;;;;4991235;28;20995;-69
2022/02/14 10:43:46;;;;;;;11.30;10.20;;;8.50;99.90;;;;;;4986424;28;20457;-69
2022/02/14 10:46:22;;;;;;;10.30;9.20;;;8.70;99.90;;;;;;4992332;28;20457;-69
2022/02/14 10:48:55;;;;;;;8.67;6.80;;;8.90;99.90;;;;;;4972795;28;20244;-68
2022/02/14 10:51:21;;;;;;;3.67;3.33;;;8.90;99.90;;;;;;4967917;28;20457;-68
2022/02/14 10:53:52;;;;;;;2.80;2.30;;;9.00;99.90;;;;;;5011069;28;20468;-70
2022/02/14 10:56:18;;;;;;;2.13;1.80;;;9.10;99.90;;;;;;5012382;28;20312;-70
2022/02/14 10:58:48;;;;;;;1.60;1.50;;;9.20;99.90;;;;;;5003382;28;20456;-70
2022/02/14 11:01:16;;;;;;;2.10;1.63;;;9.30;99.90;;;;;;5004813;28;20464;-69
2022/02/14 11:03:43;;;;;;;1.60;1.50;;;9.30;99.90;;;;;;4993828;28;20524;-69
2022/02/14 11:06:12;;;;;;;2.40;1.50;;;9.30;99.90;;;;;;5000816;28;20461;-69
2022/02/14 11:08:39;;;;;;;3.27;1.77;;;9.40;99.90;;;;;;4999642;28;20450;-69
2022/02/14 11:11:08;;;;;;;2.30;1.67;;;9.40;99.90;;;;;;4973204;28;20461;-69
2022/02/14 11:13:35;;;;;;;1.27;1.17;;;9.40;99.90;;;;;;4993144;28;20452;-69
2022/02/14 11:16:02;;;;;;;3.43;1.47;;;9.50;99.90;;;;;;4991863;28;20449;-69
2022/02/14 11:18:38;;;;;;;2.87;1.87;;;9.60;99.90;;;;;;4991142;28;20545;-69
2022/02/14 11:21:05;;;;;;;1.40;1.30;;;9.60;99.90;;;;;;4993219;28;20476;-69
2022/02/14 11:23:41;;;;;;;1.70;1.60;;;9.70;99.90;;;;;;4992811;28;20556;-68
2022/02/14 11:26:30;;;;;;;1.90;1.80;;;9.90;99.90;;;;;;4991794;28;20515;-70
2022/02/14 11:29:06;;;;;;;1.60;1.50;;;10.10;99.90;;;;;;4947969;28;20543;-69
2022/02/14 11:31:33;;;;;;;3.33;3.03;;;10.20;99.90;;;;;;5006420;28;21008;-70
2022/02/14 11:33:59;;;;;;;7.97;5.60;;;10.30;99.90;;;;;;4998017;28;21005;-70
2022/02/14 11:36:27;;;;;;;15.17;8.40;;;10.30;99.90;;;;;;4974716;28;20449;-69
2022/02/14 11:38:55;;;;;;;12.00;7.40;;;10.30;99.90;;;;;;4991002;28;20232;-69
2022/02/14 11:41:26;;;;;;;18.83;12.53;;;10.40;99.90;;;;;;4987851;28;20854;-69
2022/02/14 11:43:54;;;;;;;13.90;8.10;;;10.40;99.90;;;;;;4985194;28;20527;-69
2022/02/14 11:46:27;;;;;;;6.83;5.20;;;10.40;99.90;;;;;;4974730;28;20465;-68
2022/02/14 11:49:02;;;;;;;2.63;2.30;;;10.40;99.90;;;;;;4991567;28;20461;-69
2022/02/14 11:51:50;;;;;;;6.93;1.67;;;10.60;99.90;;;;;;4992541;28;20499;-69
2022/02/14 11:54:36;;;;;;;2.20;1.60;;;10.60;99.90;;;;;;4975074;28;20453;-70
2022/02/14 11:57:17;;;;;;;3.10;1.50;;;10.60;99.90;;;;;;4995547;28;20457;-70
2022/02/14 11:59:44;;;;;;;2.00;1.53;;;10.60;99.90;;;;;;4989039;28;20469;-70
2022/02/14 12:02:11;;;;;;;3.77;1.70;;;10.60;99.90;;;;;;4983627;28;20484;-70
2022/02/14 12:04:44;;;;;;;1.43;1.33;;;10.60;99.90;;;;;;4994233;28;20968;-69
2022/02/14 12:07:27;;;;;;;3.23;1.60;;;10.60;99.90;;;;;;5012383;28;20452;-70
2022/02/14 12:09:59;;;;;;;2.10;1.90;;;10.60;99.90;;;;;;4984243;28;20826;-69
2022/02/14 12:12:44;;;;;;;6.70;5.60;;;10.60;99.90;;;;;;4990165;28;20452;-70
2022/02/14 12:20:36;;;;;;;11.50;6.60;;;10.70;99.90;;;;;;4990657;28;20465;-70
2022/02/14 12:23:03;;;;;;;36.63;19.20;;;10.80;99.90;;;;;;4985025;28;20496;-70
2022/02/14 12:25:29;;;;;;;36.83;18.03;;;10.80;99.90;;;;;;4990340;28;20519;-69
2022/02/14 12:28:06;;;;;;;23.80;16.17;;;10.80;99.90;;;;;;4988430;28;20859;-70
2022/02/14 12:30:31;;;;;;;18.23;13.30;;;10.90;99.90;;;;;;4991045;28;20300;-69
2022/02/14 12:33:00;;;;;;;10.60;8.57;;;10.90;99.90;;;;;;4989702;28;20584;-70
2022/02/14 12:35:29;;;;;;;4.80;4.40;;;10.90;99.90;;;;;;4989893;28;20233;-69
2022/02/14 12:37:55;;;;;;;3.03;2.83;;;10.90;99.90;;;;;;4992412;28;20573;-70
2022/02/14 12:40:21;;;;;;;2.20;2.00;;;10.90;99.90;;;;;;4991256;28;20500;-69
2022/02/14 12:42:47;;;;;;;2.50;1.83;;;10.80;99.90;;;;;;5010695;28;20765;-69
2022/02/14 12:45:15;;;;;;;3.50;1.80;;;10.80;99.90;;;;;;5011136;28;20460;-70
2022/02/14 12:47:42;;;;;;;3.00;1.83;;;10.80;99.90;;;;;;5010283;28;20436;-70
2022/02/14 12:50:14;;;;;;;1.70;1.30;;;10.80;99.90;;;;;;5008145;28;20452;-70
2022/02/14 12:52:45;;;;;;;1.73;1.40;;;10.80;99.90;;;;;;4977581;28;20843;-70
2022/02/14 12:55:15;;;;;;;2.40;2.10;;;10.80;99.90;;;;;;5007919;28;20456;-69
2022/02/14 12:57:55;;;;;;;1.77;1.63;;;10.80;99.90;;;;;;4994319;28;20456;-70
2022/02/14 13:00:21;;;;;;;1.73;1.50;;;10.80;99.90;;;;;;4974526;28;20530;-69
2022/02/14 13:02:59;;;;;;;1.77;1.67;;;10.80;99.90;;;;;;4986641;28;20454;-69